Pays
Station

 

Conditions  météo  pour  Presidencia Roque Saenz Pena Aer  -  Argentine    Argentine

  
30 °C
    
 
 

METAR pour Presidencia Roque Saenz Pena Aer :

SARS 140753Z 05013G24KT 9999 TS BKN020 FEW035CB 30/24 Q1006

 

Voici le bulletin pour Presidencia Roque Saenz Pena Aer - Argentine.
 
Le bulletin a été fait il y a 178 heures et 47 minutes, à 07:53 UTC .
Le vent soufflait à la vitesse de 6.7 mètres par seconde avec des rafales jusqu'à 12.3 mètres par seconde de Nord-est (050°).
 
La température était de 30 °C, avec un point de rosée à 24 °C.
La température ressentie était de 35 °C.
 
La pression atmosphérique était de 1006 hPa.
L'humidité relative était de 70.3%.
 
Il y avait 5 à 7/8ème de nébulosité à une hauteur de 610 mètres et 1 à 2/8ème cumulonimbus de nébulosité à une hauteur de 1067 mètres.
 
La visibilité globale était de supérieure à 10 kilomètres.
 
Actuellement orage.

 
 
 

Pays :   A   B   C   D   E   F   G   H   I   J   K   L   M   N   O   P   Q   R   S   T   U   V   W   Y   Z

 

Partenaires :  Info Météo avec Met'info
Météo Marine avec MeteoMarine.net
Infos Site  |  Infos Légales  |  Crédits  |  Confidentialité
Contactez-nous  |  Ajouter aux favoris
© 2013-2020 METAR - Tous droits réservés